createdAt,value
2022-09-21T00:02:13.654Z,7.70
2022-09-21T00:04:41.668Z,5.72
2022-09-21T00:07:09.936Z,5.97
2022-09-21T00:12:15.705Z,6.35
2022-09-21T00:14:44.362Z,7.20
2022-09-21T00:17:15.145Z,5.95
2022-09-21T00:22:14.323Z,6.20
2022-09-21T00:24:42.271Z,6.45
2022-09-21T00:27:12.458Z,6.47
2022-09-21T00:29:40.470Z,5.68
2022-09-21T00:32:08.417Z,5.82
2022-09-21T00:34:37.162Z,5.85
2022-09-21T00:37:05.255Z,5.88
2022-09-21T00:39:36.239Z,5.95
2022-09-21T00:42:18.646Z,5.78
2022-09-21T00:44:46.585Z,5.93
2022-09-21T00:47:19.463Z,5.38
2022-09-21T00:49:54.769Z,5.70
2022-09-21T00:52:37.628Z,7.22
2022-09-21T00:55:37.720Z,6.43
2022-09-21T00:58:13.426Z,6.55
2022-09-21T01:00:52.471Z,5.95
2022-09-21T01:03:20.678Z,6.55
2022-09-21T01:05:52.744Z,6.22
2022-09-21T01:08:24.287Z,6.15
2022-09-21T01:11:19.334Z,5.50
2022-09-21T01:14:02.955Z,6.97
2022-09-21T01:16:42.368Z,7.15
2022-09-21T01:19:25.329Z,6.15
2022-09-21T01:22:14.662Z,6.53
2022-09-21T01:24:57.554Z,6.40
2022-09-21T01:28:13.500Z,6.40
2022-09-21T01:30:51.575Z,6.30
2022-09-21T01:33:27.014Z,7.13
2022-09-21T01:35:59.862Z,5.50
2022-09-21T01:38:46.591Z,7.15
2022-09-21T01:41:22.665Z,6.82
2022-09-21T01:43:56.382Z,6.20
2022-09-21T01:46:42.995Z,6.38
2022-09-21T01:49:16.490Z,6.50
2022-09-21T01:51:52.923Z,8.10
2022-09-21T01:54:30.754Z,6.72
2022-09-21T01:57:09.466Z,5.95
2022-09-21T01:59:52.002Z,6.72
2022-09-21T02:03:04.857Z,5.43
2022-09-21T02:05:36.424Z,6.28
2022-09-21T02:08:06.440Z,8.13
2022-09-21T02:10:43.828Z,6.45
2022-09-21T02:13:19.343Z,5.10
2022-09-21T02:16:12.418Z,5.72
2022-09-21T02:19:11.647Z,5.93
2022-09-21T02:22:05.155Z,6.97
2022-09-21T02:24:41.267Z,6.80
2022-09-21T02:27:31.016Z,6.18
2022-09-21T02:30:13.079Z,5.80
2022-09-21T02:33:05.014Z,6.40
2022-09-21T02:35:40.031Z,5.53
2022-09-21T02:38:27.203Z,6.05
2022-09-21T02:41:17.081Z,6.38
2022-09-21T02:44:14.820Z,5.17
2022-09-21T02:46:58.157Z,6.22
2022-09-21T02:49:31.622Z,5.88
2022-09-21T02:52:05.426Z,6.65
2022-09-21T02:54:40.564Z,5.25
2022-09-21T02:57:09.123Z,5.43
2022-09-21T02:59:36.778Z,5.80
2022-09-21T03:02:05.578Z,5.63
2022-09-21T03:04:34.286Z,5.80
2022-09-21T03:07:02.377Z,5.30
2022-09-21T03:09:33.356Z,5.45
2022-09-21T03:12:01.210Z,5.68
2022-09-21T03:14:28.824Z,6.50
2022-09-21T03:16:57.176Z,5.68
2022-09-21T03:19:25.568Z,6.57
2022-09-21T03:21:54.673Z,5.70
2022-09-21T03:24:41.324Z,6.38
2022-09-21T03:27:09.927Z,6.50
2022-09-21T03:29:40.501Z,5.65
2022-09-21T03:34:36.687Z,6.07
2022-09-21T03:37:06.957Z,5.78
2022-09-21T03:39:35.193Z,5.55
2022-09-21T03:42:04.022Z,6.30
2022-09-21T03:44:31.600Z,7.10
2022-09-21T03:46:59.348Z,5.85
2022-09-21T03:49:27.148Z,7.80
2022-09-21T03:51:56.091Z,5.75
2022-09-21T03:54:23.695Z,6.05
2022-09-21T03:56:52.980Z,6.72
2022-09-21T03:59:23.797Z,7.28
2022-09-21T04:01:51.490Z,6.82
2022-09-21T04:04:19.099Z,5.50
2022-09-21T04:06:46.797Z,5.75
2022-09-21T04:09:18.224Z,6.13
2022-09-21T04:11:46.487Z,5.90
2022-09-21T04:14:14.352Z,6.65
2022-09-21T04:16:42.018Z,7.00
2022-09-21T04:19:09.724Z,6.60
2022-09-21T04:21:38.574Z,5.38
2022-09-21T04:24:06.304Z,6.43
2022-09-21T04:26:35.883Z,5.65
2022-09-21T04:29:06.885Z,6.00
2022-09-21T04:31:36.405Z,6.70
2022-09-21T04:34:05.905Z,5.85
2022-09-21T04:36:36.625Z,5.82
2022-09-21T04:39:06.358Z,6.22
2022-09-21T04:41:35.103Z,5.97
2022-09-21T04:44:02.992Z,5.93
2022-09-21T04:46:30.780Z,6.10
2022-09-21T04:48:58.360Z,5.63
2022-09-21T04:51:25.944Z,5.70
2022-09-21T04:53:53.728Z,5.25
2022-09-21T04:56:21.537Z,6.32
2022-09-21T04:58:58.792Z,5.78
2022-09-21T05:01:28.033Z,6.43
2022-09-21T05:04:06.051Z,6.93
2022-09-21T05:06:40.297Z,7.50
2022-09-21T05:09:30.451Z,6.30
2022-09-21T05:12:01.185Z,6.40
2022-09-21T05:14:28.835Z,6.70
2022-09-21T05:16:56.468Z,6.75
2022-09-21T05:19:24.158Z,6.10
2022-09-21T05:22:02.557Z,6.57
2022-09-21T05:24:30.192Z,6.40
2022-09-21T05:26:58.043Z,6.18
2022-09-21T05:29:27.187Z,6.45
2022-09-21T05:32:06.499Z,7.53
2022-09-21T05:34:39.658Z,7.32
2022-09-21T05:37:31.182Z,6.95
2022-09-21T05:40:00.379Z,7.00
2022-09-21T05:42:29.567Z,6.78
2022-09-21T05:45:09.555Z,6.82
2022-09-21T05:47:41.294Z,6.75
2022-09-21T05:50:28.585Z,6.03
2022-09-21T05:53:14.910Z,5.90
2022-09-21T05:56:03.181Z,5.70
2022-09-21T05:58:44.164Z,6.13
2022-09-21T06:01:49.066Z,5.82
2022-09-21T06:04:17.301Z,5.30
2022-09-21T06:06:45.163Z,6.00
2022-09-21T06:09:13.088Z,6.07
2022-09-21T06:11:46.612Z,5.70
2022-09-21T06:14:15.685Z,6.85
2022-09-21T06:16:45.877Z,6.35
2022-09-21T06:19:17.540Z,5.72
2022-09-21T06:21:50.094Z,6.80
2022-09-21T06:24:25.025Z,6.10
2022-09-21T06:26:59.163Z,5.80
2022-09-21T06:29:32.427Z,6.07
2022-09-21T06:32:03.019Z,6.55
2022-09-21T06:34:34.678Z,6.40
2022-09-21T06:37:03.212Z,6.25
2022-09-21T06:39:31.389Z,5.93
2022-09-21T06:41:59.648Z,7.20
2022-09-21T06:44:27.665Z,7.00
2022-09-21T06:46:55.412Z,6.88
2022-09-21T06:49:23.038Z,7.13
2022-09-21T06:51:54.196Z,7.55
2022-09-21T06:54:22.194Z,6.53
2022-09-21T06:57:00.200Z,6.35
2022-09-21T06:59:31.142Z,6.38
2022-09-21T07:02:04.588Z,6.78
2022-09-21T07:04:35.456Z,6.97
2022-09-21T07:07:04.739Z,6.50
2022-09-21T07:12:24.650Z,6.03
2022-09-21T07:14:55.420Z,6.05
2022-09-21T07:17:23.497Z,6.68
2022-09-21T07:20:02.430Z,7.00
2022-09-21T07:22:34.712Z,7.15
2022-09-21T07:25:03.588Z,6.03
2022-09-21T07:27:32.622Z,5.88
2022-09-21T07:30:02.568Z,6.05
2022-09-21T07:32:35.368Z,6.00
2022-09-21T07:35:03.156Z,6.63
2022-09-21T07:37:34.692Z,6.43
2022-09-21T07:40:05.993Z,6.63
2022-09-21T07:42:33.936Z,6.03
2022-09-21T07:45:09.476Z,6.25
2022-09-21T07:47:48.851Z,6.10
2022-09-21T07:50:22.054Z,6.50
2022-09-21T07:52:50.014Z,6.47
2022-09-21T07:55:22.394Z,5.75
2022-09-21T07:58:09.006Z,6.35
2022-09-21T08:00:39.700Z,7.22
2022-09-21T08:03:10.909Z,6.82
2022-09-21T08:05:38.752Z,6.68
2022-09-21T08:08:10.143Z,6.32
2022-09-21T08:10:47.444Z,6.22
2022-09-21T08:13:15.012Z,5.70
2022-09-21T08:15:49.670Z,7.32
2022-09-21T08:18:17.994Z,6.97
2022-09-21T08:20:58.436Z,5.85
2022-09-21T08:23:29.108Z,6.20
2022-09-21T08:26:06.775Z,6.15
2022-09-21T08:28:38.797Z,6.53
2022-09-21T08:31:12.671Z,6.43
2022-09-21T08:33:40.314Z,6.05
2022-09-21T08:36:09.562Z,6.35
2022-09-21T08:38:39.321Z,6.47
2022-09-21T08:41:20.756Z,6.20
2022-09-21T08:44:05.379Z,5.97
2022-09-21T08:46:37.776Z,5.80
2022-09-21T08:49:16.543Z,6.90
2022-09-21T08:51:53.141Z,6.28
2022-09-21T08:54:39.053Z,6.75
2022-09-21T08:57:13.351Z,6.50
2022-09-21T08:59:45.331Z,7.32
2022-09-21T09:02:50.422Z,6.80
2022-09-21T09:05:39.874Z,6.47
2022-09-21T09:08:22.835Z,7.05
2022-09-21T09:11:00.146Z,5.93
2022-09-21T09:14:13.985Z,6.30
2022-09-21T09:17:19.372Z,5.78
2022-09-21T09:20:25.668Z,5.15
2022-09-21T09:23:14.185Z,5.20
2022-09-21T09:25:43.489Z,4.88
2022-09-21T09:28:37.535Z,5.32
2022-09-21T09:31:14.865Z,5.57
2022-09-21T09:33:57.391Z,5.20
2022-09-21T09:36:57.306Z,5.25
2022-09-21T09:39:22.121Z,6.15
2022-09-21T09:42:13.293Z,5.45
2022-09-21T09:44:49.723Z,5.22
2022-09-21T09:47:36.434Z,6.30
2022-09-21T09:50:40.295Z,5.47
2022-09-21T09:53:12.120Z,6.50
2022-09-21T09:55:44.114Z,5.82
2022-09-21T09:58:34.386Z,5.95
2022-09-21T10:01:12.049Z,6.55
2022-09-21T10:03:40.934Z,5.90
2022-09-21T10:06:30.585Z,6.63
2022-09-21T10:08:58.401Z,5.27
2022-09-21T10:11:38.407Z,5.22
2022-09-21T10:14:16.908Z,7.10
2022-09-21T10:16:44.877Z,5.43
2022-09-21T10:19:26.438Z,6.18
2022-09-21T10:22:00.180Z,4.97
2022-09-21T10:24:42.323Z,4.70
2022-09-21T10:27:29.338Z,5.82
2022-09-21T10:29:57.523Z,4.93
2022-09-21T10:32:27.295Z,4.80
2022-09-21T10:35:10.570Z,4.82
2022-09-21T10:37:53.717Z,5.65
2022-09-21T10:40:21.487Z,4.20
2022-09-21T10:42:52.642Z,5.47
2022-09-21T10:45:24.296Z,4.90
2022-09-21T10:48:13.998Z,4.78
2022-09-21T10:50:50.912Z,4.53
2022-09-21T10:53:37.419Z,4.13
2022-09-21T10:56:26.903Z,4.50
2022-09-21T10:59:11.138Z,4.40
2022-09-21T11:01:48.684Z,4.40
2022-09-21T11:04:40.768Z,4.07
2022-09-21T11:07:20.115Z,4.07
2022-09-21T11:10:01.174Z,4.50
2022-09-21T11:12:42.930Z,3.65
2022-09-21T11:15:38.548Z,2.80
2022-09-21T11:18:14.642Z,3.58
2022-09-21T11:20:48.862Z,3.22
2022-09-21T11:23:36.413Z,3.10
2022-09-21T11:26:49.318Z,2.63
2022-09-21T11:29:23.356Z,3.92
2022-09-21T11:32:25.209Z,3.22
2022-09-21T11:35:05.040Z,3.58
2022-09-21T11:37:50.948Z,4.28
2022-09-21T11:40:35.289Z,4.43
2022-09-21T11:43:27.627Z,3.58
2022-09-21T11:45:58.945Z,3.90
2022-09-21T11:48:34.127Z,4.82
2022-09-21T11:51:19.986Z,4.85
2022-09-21T11:54:18.697Z,4.50
2022-09-21T11:57:01.261Z,5.22
2022-09-21T12:00:05.855Z,3.92
2022-09-21T12:03:01.254Z,3.55
2022-09-21T12:05:38.015Z,2.92
2022-09-21T12:08:15.002Z,2.65
2022-09-21T12:11:20.304Z,2.60
2022-09-21T12:14:25.331Z,2.50
2022-09-21T12:17:21.378Z,2.78
2022-09-21T12:20:18.019Z,2.55
2022-09-21T12:22:52.437Z,1.90
2022-09-21T12:25:31.762Z,1.80
2022-09-21T12:28:04.158Z,2.35
2022-09-21T12:30:33.424Z,2.70
2022-09-21T12:33:15.632Z,3.33
2022-09-21T12:35:59.162Z,3.22
2022-09-21T12:38:42.971Z,2.80
2022-09-21T12:41:23.153Z,4.90
2022-09-21T12:44:05.855Z,4.25
2022-09-21T12:46:48.858Z,3.15
2022-09-21T12:49:31.597Z,3.08
2022-09-21T12:52:09.495Z,2.60
2022-09-21T12:54:46.885Z,2.53
2022-09-21T12:58:14.064Z,2.92
2022-09-21T13:01:05.716Z,3.13
2022-09-21T13:03:37.522Z,2.53
2022-09-21T13:06:34.545Z,2.72
2022-09-21T13:09:07.305Z,3.40
2022-09-21T13:12:09.588Z,2.53
2022-09-21T13:14:43.742Z,2.90
2022-09-21T13:17:24.434Z,2.65
2022-09-21T13:20:07.677Z,2.70
2022-09-21T13:22:37.564Z,2.53
2022-09-21T13:25:05.752Z,2.72
2022-09-21T13:28:04.568Z,2.60
2022-09-21T13:30:38.051Z,2.92
2022-09-21T13:33:25.565Z,3.28
2022-09-21T13:36:04.966Z,3.08
2022-09-21T13:38:40.202Z,3.20
2022-09-21T13:41:22.101Z,2.72
2022-09-21T13:44:05.948Z,2.60
2022-09-21T13:46:39.405Z,3.25
2022-09-21T13:49:19.364Z,4.78
2022-09-21T13:52:11.976Z,5.07
2022-09-21T13:55:01.950Z,6.35
2022-09-21T13:57:45.155Z,6.90
2022-09-21T14:00:15.657Z,6.50
2022-09-21T14:03:06.602Z,5.68
2022-09-21T14:05:47.898Z,4.43
2022-09-21T14:08:18.583Z,3.53
2022-09-21T14:10:56.971Z,2.58
2022-09-21T14:13:33.928Z,2.70
2022-09-21T14:16:37.241Z,2.63
2022-09-21T14:19:30.542Z,2.47
2022-09-21T14:22:07.579Z,2.53
2022-09-21T14:25:34.330Z,3.45
2022-09-21T14:28:11.821Z,2.70
2022-09-21T14:30:49.798Z,2.50
2022-09-21T14:35:59.504Z,3.05
2022-09-21T14:38:37.379Z,2.53
2022-09-21T14:41:08.913Z,2.22
2022-09-21T14:43:39.829Z,1.98
2022-09-21T14:46:46.076Z,2.35
2022-09-21T14:49:39.306Z,2.72
2022-09-21T14:52:32.161Z,1.80
2022-09-21T14:55:24.486Z,2.40
2022-09-21T14:58:16.461Z,2.40
2022-09-21T15:00:50.880Z,2.38
2022-09-21T15:03:49.406Z,2.30
2022-09-21T15:06:59.896Z,2.70
2022-09-21T15:10:22.974Z,2.58
2022-09-21T15:13:27.405Z,1.98
2022-09-21T15:15:57.705Z,2.20
2022-09-21T15:18:35.357Z,2.22
2022-09-21T15:21:05.586Z,2.65
2022-09-21T15:23:39.390Z,2.58
2022-09-21T15:26:21.145Z,2.53
2022-09-21T15:29:10.929Z,2.13
2022-09-21T15:31:42.519Z,2.35
2022-09-21T15:34:19.912Z,1.98
2022-09-21T15:36:53.988Z,2.33
2022-09-21T15:39:23.099Z,1.95
2022-09-21T15:42:06.171Z,2.20
2022-09-21T15:44:37.167Z,2.55
2022-09-21T15:47:09.284Z,2.75
2022-09-21T15:49:38.470Z,2.70
2022-09-21T15:52:15.068Z,3.10
2022-09-21T15:54:52.634Z,2.80
2022-09-21T15:57:36.763Z,2.63
2022-09-21T16:00:21.720Z,2.90
2022-09-21T16:03:06.296Z,2.47
2022-09-21T16:05:52.170Z,2.30
2022-09-21T16:08:34.466Z,3.88
2022-09-21T16:11:26.768Z,3.20
2022-09-21T16:14:30.235Z,2.67
2022-09-21T16:17:11.507Z,2.50
2022-09-21T16:19:42.340Z,2.80
2022-09-21T16:22:29.399Z,3.10
2022-09-21T16:24:59.671Z,3.13
2022-09-21T16:27:31.026Z,2.70
2022-09-21T16:30:01.168Z,3.15
2022-09-21T16:32:34.237Z,3.05
2022-09-21T16:35:31.683Z,3.00
2022-09-21T16:38:10.072Z,2.90
2022-09-21T16:40:37.678Z,2.85
2022-09-21T16:43:14.258Z,3.58
2022-09-21T16:45:42.041Z,2.60
2022-09-21T16:48:12.556Z,2.03
2022-09-21T16:50:43.162Z,2.78
2022-09-21T16:55:43.324Z,2.97
2022-09-21T16:58:14.278Z,2.72
2022-09-21T17:00:43.391Z,3.33
2022-09-21T17:03:16.127Z,2.90
2022-09-21T17:05:45.154Z,2.83
2022-09-21T17:08:14.436Z,2.92
2022-09-21T17:10:45.141Z,2.77
2022-09-21T17:13:17.781Z,2.35
2022-09-21T17:15:49.786Z,2.67
2022-09-21T17:18:17.652Z,2.40
2022-09-21T17:20:45.551Z,3.17
2022-09-21T17:23:22.787Z,3.67
2022-09-21T17:25:52.622Z,2.78
2022-09-21T17:28:26.393Z,3.70
2022-09-21T17:31:04.944Z,2.67
2022-09-21T17:33:36.028Z,2.92
2022-09-21T17:36:08.121Z,2.58
2022-09-21T17:38:35.804Z,3.15
2022-09-21T17:41:14.657Z,2.97
2022-09-21T17:43:50.201Z,3.58
2022-09-21T17:46:43.044Z,2.92
2022-09-21T17:49:17.332Z,3.22
2022-09-21T17:52:03.733Z,2.22
2022-09-21T17:54:39.102Z,3.05
2022-09-21T17:57:29.831Z,2.60
2022-09-21T18:00:31.631Z,3.00
2022-09-21T18:02:59.617Z,2.88
2022-09-21T18:05:32.859Z,3.85
2022-09-21T18:08:05.645Z,2.95
2022-09-21T18:10:35.217Z,3.22
2022-09-21T18:13:13.543Z,2.70
2022-09-21T18:15:59.130Z,3.00
2022-09-21T18:18:52.049Z,3.03
2022-09-21T18:21:25.175Z,3.22
2022-09-21T18:24:18.035Z,3.42
2022-09-21T18:26:48.218Z,3.22
2022-09-21T18:29:46.591Z,3.17
2022-09-21T18:32:32.121Z,4.72
2022-09-21T18:35:40.303Z,4.50
2022-09-21T18:38:32.089Z,3.03
2022-09-21T18:41:28.559Z,3.70
2022-09-21T18:43:57.924Z,3.58
2022-09-21T18:47:06.296Z,5.07
2022-09-21T18:50:01.843Z,4.70
2022-09-21T18:52:48.834Z,4.65
2022-09-21T18:55:28.312Z,6.05
2022-09-21T18:58:24.174Z,6.85
2022-09-21T19:00:52.703Z,5.75
2022-09-21T19:03:26.793Z,5.53
2022-09-21T19:06:15.644Z,6.70
2022-09-21T19:09:08.013Z,6.13
2022-09-21T19:11:53.489Z,5.93
2022-09-21T19:14:31.199Z,5.97
2022-09-21T19:17:09.149Z,5.93
2022-09-21T19:20:02.924Z,5.57
2022-09-21T19:23:03.369Z,7.07
2022-09-21T19:25:49.949Z,6.90
2022-09-21T19:28:30.593Z,7.80
2022-09-21T19:31:20.965Z,7.43
2022-09-21T19:33:54.673Z,9.02
2022-09-21T19:36:24.278Z,9.40
2022-09-21T19:38:52.457Z,8.77
2022-09-21T19:41:42.444Z,8.80
2022-09-21T19:44:22.198Z,8.27
2022-09-21T19:47:16.713Z,8.30
2022-09-21T19:49:54.638Z,7.05
2022-09-21T19:52:35.296Z,7.40
2022-09-21T19:55:25.602Z,7.15
2022-09-21T19:58:23.023Z,7.65
2022-09-21T20:00:58.257Z,6.82
2022-09-21T20:03:42.584Z,7.00
2022-09-21T20:06:13.098Z,7.05
2022-09-21T20:09:19.099Z,7.18
2022-09-21T20:12:17.244Z,7.72
2022-09-21T20:14:53.236Z,6.93
2022-09-21T20:17:38.961Z,7.35
2022-09-21T20:20:28.735Z,6.75
2022-09-21T20:22:59.848Z,7.15
2022-09-21T20:25:52.412Z,6.30
2022-09-21T20:28:23.756Z,6.63
2022-09-21T20:30:51.819Z,6.90
2022-09-21T20:33:24.210Z,7.22
2022-09-21T20:35:58.259Z,6.50
2022-09-21T20:38:26.108Z,7.40
2022-09-21T20:41:00.211Z,6.22
2022-09-21T20:43:32.504Z,5.93
2022-09-21T20:46:07.216Z,5.50
2022-09-21T20:48:40.567Z,6.07
2022-09-21T20:51:12.253Z,6.90
2022-09-21T20:53:40.754Z,6.75
2022-09-21T20:56:08.972Z,5.85
2022-09-21T20:58:36.749Z,5.95
2022-09-21T21:01:06.647Z,5.97
2022-09-21T21:03:38.001Z,6.10
2022-09-21T21:06:15.770Z,5.70
2022-09-21T21:08:47.135Z,6.88
2022-09-21T21:11:25.094Z,6.18
2022-09-21T21:13:52.784Z,6.80
2022-09-21T21:16:22.148Z,5.88
2022-09-21T21:18:53.012Z,5.68
2022-09-21T21:21:24.658Z,5.75
2022-09-21T21:24:16.852Z,5.65
2022-09-21T21:27:01.298Z,5.40
2022-09-21T21:29:31.268Z,5.45
2022-09-21T21:32:04.081Z,5.65
2022-09-21T21:34:32.837Z,5.45
2022-09-21T21:37:01.454Z,6.27
2022-09-21T21:39:34.987Z,5.82
2022-09-21T21:42:03.896Z,6.63
2022-09-21T21:44:32.380Z,6.82
2022-09-21T21:47:15.437Z,5.95
2022-09-21T21:49:48.662Z,5.95
2022-09-21T21:52:21.990Z,5.93
2022-09-21T21:54:50.174Z,5.75
2022-09-21T21:57:21.445Z,6.57
2022-09-21T21:59:51.852Z,6.70
2022-09-21T22:02:19.597Z,7.50
2022-09-21T22:04:55.613Z,6.57
2022-09-21T22:07:23.484Z,6.18
2022-09-21T22:09:51.394Z,7.22
2022-09-21T22:12:19.131Z,7.22
2022-09-21T22:14:47.755Z,6.10
2022-09-21T22:17:15.777Z,6.43
2022-09-21T22:19:43.922Z,6.05
2022-09-21T22:22:13.794Z,6.75
2022-09-21T22:24:55.214Z,6.85
2022-09-21T22:27:23.136Z,6.60
2022-09-21T22:29:51.138Z,6.75
2022-09-21T22:32:18.925Z,6.70
2022-09-21T22:34:46.754Z,6.53
2022-09-21T22:37:19.556Z,7.25
2022-09-21T22:39:47.279Z,6.75
2022-09-21T22:42:18.672Z,6.22
2022-09-21T22:44:46.303Z,6.88
2022-09-21T22:47:17.073Z,6.43
2022-09-21T22:49:44.807Z,7.65
2022-09-21T22:52:12.755Z,6.13
2022-09-21T22:54:40.475Z,5.95
2022-09-21T22:57:10.510Z,5.63
2022-09-21T22:59:41.051Z,6.10
2022-09-21T23:02:12.045Z,6.10
2022-09-21T23:04:42.513Z,5.55
2022-09-21T23:07:10.277Z,5.72
2022-09-21T23:09:38.747Z,5.68
2022-09-21T23:12:09.275Z,6.72
2022-09-21T23:17:04.931Z,6.78
2022-09-21T23:19:34.645Z,5.97
2022-09-21T23:22:02.396Z,6.60
2022-09-21T23:24:30.406Z,6.15
2022-09-21T23:26:58.638Z,5.95
2022-09-21T23:29:26.457Z,6.55
2022-09-21T23:31:54.655Z,7.00
2022-09-21T23:34:22.405Z,7.15
2022-09-21T23:36:53.159Z,7.57
2022-09-21T23:39:21.125Z,7.38
2022-09-21T23:41:55.224Z,7.40
2022-09-21T23:44:23.050Z,7.47
2022-09-21T23:46:54.186Z,7.35
2022-09-21T23:49:23.254Z,7.72
2022-09-21T23:51:51.039Z,7.47
2022-09-21T23:54:27.670Z,7.38
2022-09-21T23:56:58.071Z,8.25
2022-09-21T23:59:28.727Z,7.18
